createdAt,value
2023-02-24T00:02:04.454Z,101804.38
2023-02-24T00:04:41.234Z,101808.69
2023-02-24T00:07:11.177Z,101803.97
2023-02-24T00:09:39.809Z,101794.59
2023-02-24T00:12:11.963Z,101799.75
2023-02-24T00:14:44.332Z,101796.50
2023-02-24T00:17:16.297Z,101800.75
2023-02-24T00:19:46.022Z,101801.06
2023-02-24T00:22:13.771Z,101791.66
2023-02-24T00:24:42.216Z,101785.91
2023-02-24T00:27:12.900Z,101787.84
2023-02-24T00:29:42.281Z,101777.31
2023-02-24T00:32:13.368Z,101774.50
2023-02-24T00:34:43.284Z,101772.59
2023-02-24T00:37:12.189Z,101769.88
2023-02-24T00:39:41.699Z,101769.06
2023-02-24T00:42:12.051Z,101773.50
2023-02-24T00:44:45.707Z,101769.84
2023-02-24T00:47:17.401Z,101751.91
2023-02-24T00:49:45.310Z,101753.41
2023-02-24T00:52:28.825Z,101747.50
2023-02-24T00:55:01.018Z,101748.22
2023-02-24T00:57:30.852Z,101735.16
2023-02-24T00:59:58.797Z,101733.53
2023-02-24T01:02:26.811Z,101734.31
2023-02-24T01:04:55.525Z,101729.25
2023-02-24T01:07:23.553Z,101717.38
2023-02-24T01:09:51.323Z,101722.53
2023-02-24T01:12:38.793Z,101734.28
2023-02-24T01:15:09.281Z,101738.72
2023-02-24T01:17:37.984Z,101730.72
2023-02-24T01:20:19.753Z,101735.22
2023-02-24T01:22:53.659Z,101733.34
2023-02-24T01:25:22.519Z,101727.53
2023-02-24T01:27:50.712Z,101724.00
2023-02-24T01:30:18.814Z,101721.56
2023-02-24T01:32:47.916Z,101730.91
2023-02-24T01:35:16.396Z,101728.31
2023-02-24T01:37:45.508Z,101731.66
2023-02-24T01:40:21.170Z,101739.22
2023-02-24T01:42:49.758Z,101732.91
2023-02-24T01:45:22.160Z,101729.19
2023-02-24T01:47:50.834Z,101731.03
2023-02-24T01:50:22.159Z,101733.78
2023-02-24T01:52:56.255Z,101729.41
2023-02-24T01:55:29.404Z,101722.56
2023-02-24T01:58:00.807Z,101721.44
2023-02-24T02:00:37.357Z,101719.78
2023-02-24T02:03:11.189Z,101712.81
2023-02-24T02:05:40.989Z,101713.59
2023-02-24T02:08:11.307Z,101712.94
2023-02-24T02:10:41.458Z,101711.06
2023-02-24T02:13:14.465Z,101706.00
2023-02-24T02:15:53.043Z,101705.16
2023-02-24T02:18:41.066Z,101705.25
2023-02-24T02:21:24.981Z,101713.06
2023-02-24T02:24:23.300Z,101700.06
2023-02-24T02:26:58.779Z,101700.91
2023-02-24T02:29:46.151Z,101698.28
2023-02-24T02:32:55.589Z,101696.53
2023-02-24T02:35:36.884Z,101698.28
2023-02-24T02:38:15.357Z,101700.13
2023-02-24T02:41:14.314Z,101698.09
2023-02-24T02:44:02.846Z,101688.50
2023-02-24T02:46:56.567Z,101686.69
2023-02-24T02:49:32.453Z,101679.88
2023-02-24T02:52:26.801Z,101681.69
2023-02-24T02:55:00.737Z,101684.13
2023-02-24T02:57:31.687Z,101672.28
2023-02-24T03:00:14.377Z,101668.63
2023-02-24T03:02:48.407Z,101677.16
2023-02-24T03:05:20.820Z,101670.16
2023-02-24T03:07:54.813Z,101669.63
2023-02-24T03:10:27.795Z,101672.94
2023-02-24T03:13:02.160Z,101675.53
2023-02-24T03:15:33.079Z,101661.81
2023-02-24T03:18:15.744Z,101666.09
2023-02-24T03:20:51.993Z,101663.44
2023-02-24T03:23:26.175Z,101652.94
2023-02-24T03:26:01.369Z,101656.56
2023-02-24T03:28:40.372Z,101653.97
2023-02-24T03:31:18.413Z,101650.59
2023-02-24T03:34:20.419Z,101648.78
2023-02-24T03:36:54.501Z,101655.59
2023-02-24T03:39:25.476Z,101646.09
2023-02-24T03:42:15.712Z,101646.91
2023-02-24T03:44:45.573Z,101635.72
2023-02-24T03:47:16.307Z,101640.16
2023-02-24T03:49:44.107Z,101633.19
2023-02-24T03:52:37.656Z,101627.13
2023-02-24T03:55:08.658Z,101629.03
2023-02-24T03:58:04.801Z,101622.00
2023-02-24T04:00:44.925Z,101625.31
2023-02-24T04:03:31.280Z,101616.75
2023-02-24T04:06:28.858Z,101619.34
2023-02-24T04:09:36.218Z,101617.66
2023-02-24T04:12:27.191Z,101619.38
2023-02-24T04:15:09.440Z,101625.53
2023-02-24T04:17:40.201Z,101617.66
2023-02-24T04:20:13.714Z,101623.41
2023-02-24T04:22:49.816Z,101620.84
2023-02-24T04:25:24.580Z,101614.75
2023-02-24T04:27:58.442Z,101611.38
2023-02-24T04:30:30.894Z,101621.91
2023-02-24T04:32:59.177Z,101611.47
2023-02-24T04:35:28.098Z,101610.50
2023-02-24T04:37:57.014Z,101608.72
2023-02-24T04:40:26.017Z,101611.41
2023-02-24T04:42:54.707Z,101601.44
2023-02-24T04:45:29.361Z,101604.94
2023-02-24T04:48:02.290Z,101589.28
2023-02-24T04:50:36.128Z,101590.22
2023-02-24T04:53:09.848Z,101589.25
2023-02-24T04:55:40.737Z,101590.25
2023-02-24T04:58:14.155Z,101589.41
2023-02-24T05:00:42.386Z,101596.44
2023-02-24T05:03:12.100Z,101588.06
2023-02-24T05:05:42.954Z,101595.09
2023-02-24T05:08:10.979Z,101596.13
2023-02-24T05:10:41.514Z,101590.91
2023-02-24T05:13:13.972Z,101606.44
2023-02-24T05:15:43.037Z,101609.03
2023-02-24T05:18:17.319Z,101599.88
2023-02-24T05:21:06.935Z,101593.00
2023-02-24T05:23:40.677Z,101594.84
2023-02-24T05:26:29.108Z,101596.78
2023-02-24T05:28:59.746Z,101591.13
2023-02-24T05:31:29.664Z,101593.72
2023-02-24T05:34:02.944Z,101603.44
2023-02-24T05:36:36.651Z,101603.66
2023-02-24T05:39:08.138Z,101600.28
2023-02-24T05:41:38.897Z,101591.53
2023-02-24T05:44:13.747Z,101595.13
2023-02-24T05:46:47.145Z,101588.16
2023-02-24T05:49:24.184Z,101587.47
2023-02-24T05:51:56.219Z,101579.09
2023-02-24T05:54:31.833Z,101576.78
2023-02-24T05:57:05.417Z,101575.44
2023-02-24T05:59:34.040Z,101572.72
2023-02-24T06:02:16.063Z,101577.09
2023-02-24T06:04:51.339Z,101583.13
2023-02-24T06:07:34.290Z,101583.13
2023-02-24T06:10:10.022Z,101573.66
2023-02-24T06:12:39.990Z,101569.28
2023-02-24T06:15:10.856Z,101573.72
2023-02-24T06:17:39.582Z,101567.69
2023-02-24T06:20:15.726Z,101576.41
2023-02-24T06:22:43.571Z,101569.72
2023-02-24T06:25:14.260Z,101566.19
2023-02-24T06:27:43.239Z,101561.13
2023-02-24T06:30:11.427Z,101559.22
2023-02-24T06:32:39.317Z,101557.66
2023-02-24T06:35:07.121Z,101564.56
2023-02-24T06:37:36.655Z,101549.91
2023-02-24T06:40:15.776Z,101551.75
2023-02-24T06:42:55.216Z,101544.09
2023-02-24T06:45:24.509Z,101539.59
2023-02-24T06:47:52.692Z,101526.03
2023-02-24T06:50:21.987Z,101521.94
2023-02-24T06:52:50.572Z,101522.03
2023-02-24T06:55:27.954Z,101505.66
2023-02-24T06:58:04.706Z,101498.75
2023-02-24T07:00:43.023Z,101495.47
2023-02-24T07:03:16.730Z,101498.06
2023-02-24T07:06:11.248Z,101493.63
2023-02-24T07:08:38.955Z,101500.72
2023-02-24T07:11:08.015Z,101501.69
2023-02-24T07:13:36.835Z,101513.91
2023-02-24T07:16:07.614Z,101491.69
2023-02-24T07:18:37.240Z,101501.25
2023-02-24T07:21:05.324Z,101484.09
2023-02-24T07:23:33.076Z,101480.66
2023-02-24T07:26:00.701Z,101486.78
2023-02-24T07:28:28.209Z,101474.00
2023-02-24T07:30:57.400Z,101472.25
2023-02-24T07:33:25.939Z,101469.75
2023-02-24T07:35:53.998Z,101456.00
2023-02-24T07:38:23.053Z,101457.81
2023-02-24T07:40:51.058Z,101453.53
2023-02-24T07:43:19.241Z,101456.88
2023-02-24T07:45:47.533Z,101444.00
2023-02-24T07:48:15.312Z,101435.28
2023-02-24T07:50:43.622Z,101440.66
2023-02-24T07:53:11.136Z,101446.69
2023-02-24T07:55:38.619Z,101442.41
2023-02-24T07:58:06.738Z,101445.06
2023-02-24T08:00:50.406Z,101429.50
2023-02-24T08:03:18.244Z,101442.47
2023-02-24T08:05:45.830Z,101439.97
2023-02-24T08:08:21.074Z,101440.88
2023-02-24T08:10:48.870Z,101439.28
2023-02-24T08:13:19.248Z,101445.44
2023-02-24T08:15:56.600Z,101435.06
2023-02-24T08:18:24.253Z,101424.66
2023-02-24T08:20:52.482Z,101431.66
2023-02-24T08:23:20.276Z,101425.69
2023-02-24T08:25:48.428Z,101431.66
2023-02-24T08:28:16.076Z,101420.47
2023-02-24T08:30:47.599Z,101421.44
2023-02-24T08:33:22.289Z,101415.47
2023-02-24T08:36:01.407Z,101413.78
2023-02-24T08:38:44.635Z,101422.53
2023-02-24T08:41:22.196Z,101432.03
2023-02-24T08:43:50.173Z,101411.25
2023-02-24T08:46:26.831Z,101407.78
2023-02-24T08:48:58.028Z,101405.19
2023-02-24T08:51:43.784Z,101402.66
2023-02-24T08:54:27.542Z,101399.19
2023-02-24T08:56:56.506Z,101400.97
2023-02-24T08:59:41.062Z,101401.00
2023-02-24T09:02:20.829Z,101410.53
2023-02-24T09:04:59.855Z,101398.41
2023-02-24T09:07:35.681Z,101374.16
2023-02-24T09:10:18.330Z,101376.75
2023-02-24T09:12:49.385Z,101370.69
2023-02-24T09:15:17.098Z,101371.53
2023-02-24T09:17:47.611Z,101372.41
2023-02-24T09:20:39.362Z,101339.44
2023-02-24T09:23:08.746Z,101342.00
2023-02-24T09:25:49.607Z,101341.16
2023-02-24T09:28:20.008Z,101328.16
2023-02-24T09:30:55.455Z,101334.97
2023-02-24T09:33:38.985Z,101327.94
2023-02-24T09:36:10.234Z,101327.09
2023-02-24T09:39:01.051Z,101322.84
2023-02-24T09:42:04.013Z,101321.13
2023-02-24T09:44:45.285Z,101315.97
2023-02-24T09:47:31.468Z,101314.25
2023-02-24T09:50:47.326Z,101311.66
2023-02-24T09:53:20.157Z,101298.63
2023-02-24T09:56:03.993Z,101287.25
2023-02-24T09:58:48.326Z,101277.72
2023-02-24T10:01:43.478Z,101265.56
2023-02-24T10:04:33.935Z,101258.66
2023-02-24T10:07:11.294Z,101246.59
2023-02-24T10:10:11.254Z,101228.34
2023-02-24T10:12:41.748Z,101230.94
2023-02-24T10:15:19.057Z,101239.50
2023-02-24T10:18:29.573Z,101222.19
2023-02-24T10:21:04.582Z,101222.09
2023-02-24T10:23:56.728Z,101216.06
2023-02-24T10:26:34.878Z,101198.69
2023-02-24T10:29:22.807Z,101207.34
2023-02-24T10:31:58.431Z,101219.50
2023-02-24T10:34:33.510Z,101195.09
2023-02-24T10:37:28.137Z,101198.47
2023-02-24T10:40:10.145Z,101192.56
2023-02-24T10:42:45.980Z,101178.66
2023-02-24T10:45:25.339Z,101171.63
2023-02-24T10:47:59.608Z,101173.13
2023-02-24T10:50:55.246Z,101183.50
2023-02-24T10:53:41.027Z,101166.06
2023-02-24T10:56:42.739Z,101151.22
2023-02-24T10:59:41.220Z,101150.06
2023-02-24T11:02:24.964Z,101140.41
2023-02-24T11:05:02.535Z,101135.66
2023-02-24T11:07:54.086Z,101131.53
2023-02-24T11:10:42.752Z,101138.25
2023-02-24T11:13:36.030Z,101124.59
2023-02-24T11:16:23.256Z,101110.41
2023-02-24T11:18:52.746Z,101105.66
2023-02-24T11:21:26.162Z,101096.88
2023-02-24T11:23:59.798Z,101104.34
2023-02-24T11:26:38.039Z,101097.44
2023-02-24T11:29:44.419Z,101085.09
2023-02-24T11:32:22.181Z,101080.78
2023-02-24T11:35:00.485Z,101080.75
2023-02-24T11:37:49.334Z,101081.81
2023-02-24T11:40:29.608Z,101084.06
2023-02-24T11:43:18.634Z,101084.00
2023-02-24T11:46:04.713Z,101068.34
2023-02-24T11:48:46.136Z,101065.44
2023-02-24T11:51:27.882Z,101066.22
2023-02-24T11:54:01.209Z,101071.59
2023-02-24T11:56:35.872Z,101072.44
2023-02-24T11:59:52.081Z,101064.34
2023-02-24T12:02:45.070Z,101071.34
2023-02-24T12:05:42.180Z,101063.16
2023-02-24T12:08:17.393Z,101072.59
2023-02-24T12:10:54.071Z,101060.16
2023-02-24T12:14:06.985Z,101052.28
2023-02-24T12:16:45.936Z,101050.69
2023-02-24T12:19:29.145Z,101053.28
2023-02-24T12:22:06.027Z,101043.19
2023-02-24T12:24:36.886Z,101037.34
2023-02-24T12:27:13.294Z,101032.94
2023-02-24T12:30:06.720Z,101026.84
2023-02-24T12:32:47.341Z,101024.28
2023-02-24T12:35:20.104Z,101016.28
2023-02-24T12:38:24.264Z,100998.19
2023-02-24T12:41:18.931Z,100999.88
2023-02-24T12:44:00.668Z,100995.63
2023-02-24T12:46:34.826Z,100996.38
2023-02-24T12:49:12.122Z,101002.69
2023-02-24T12:52:14.010Z,100988.66
2023-02-24T12:54:52.002Z,100990.31
2023-02-24T12:57:39.392Z,100969.41
2023-02-24T13:00:16.815Z,100979.88
2023-02-24T13:02:55.759Z,100979.88
2023-02-24T13:05:36.163Z,100982.47
2023-02-24T13:08:42.422Z,100983.34
2023-02-24T13:11:48.134Z,100968.84
2023-02-24T13:14:30.103Z,100955.66
2023-02-24T13:17:20.706Z,100954.03
2023-02-24T13:19:49.716Z,100950.53
2023-02-24T13:22:28.751Z,100952.22
2023-02-24T13:25:08.462Z,100940.00
2023-02-24T13:27:54.485Z,100938.19
2023-02-24T13:30:41.985Z,100935.38
2023-02-24T13:33:18.726Z,100926.53
2023-02-24T13:35:53.068Z,100916.25
2023-02-24T13:38:31.669Z,100913.63
2023-02-24T13:41:20.444Z,100909.31
2023-02-24T13:44:01.830Z,100912.72
2023-02-24T13:46:57.089Z,100901.50
2023-02-24T13:50:07.009Z,100890.25
2023-02-24T13:53:10.983Z,100893.50
2023-02-24T13:56:20.141Z,100896.00
2023-02-24T13:59:27.025Z,100883.84
2023-02-24T14:02:12.315Z,100885.69
2023-02-24T14:04:53.765Z,100877.91
2023-02-24T14:07:25.506Z,100879.59
2023-02-24T14:09:59.827Z,100877.97
2023-02-24T14:12:30.694Z,100884.06
2023-02-24T14:14:59.144Z,100871.03
2023-02-24T14:17:28.882Z,100872.94
2023-02-24T14:20:09.310Z,100869.41
2023-02-24T14:22:56.659Z,100867.84
2023-02-24T14:25:34.586Z,100863.53
2023-02-24T14:28:03.142Z,100861.66
2023-02-24T14:30:41.401Z,100858.22
2023-02-24T14:33:27.408Z,100854.63
2023-02-24T14:35:56.275Z,100854.59
2023-02-24T14:38:39.344Z,100861.66
2023-02-24T14:41:25.346Z,100845.09
2023-02-24T14:43:55.395Z,100856.28
2023-02-24T14:46:24.108Z,100848.53
2023-02-24T14:48:56.182Z,100847.00
2023-02-24T14:51:36.512Z,100843.69
2023-02-24T14:54:11.872Z,100845.38
2023-02-24T14:56:41.565Z,100835.88
2023-02-24T14:59:16.306Z,100836.78
2023-02-24T15:01:48.210Z,100835.19
2023-02-24T15:04:28.508Z,100826.47
2023-02-24T15:06:56.465Z,100826.53
2023-02-24T15:09:33.163Z,100815.34
2023-02-24T15:12:11.293Z,100819.59
2023-02-24T15:14:41.743Z,100813.63
2023-02-24T15:17:17.130Z,100806.03
2023-02-24T15:19:54.353Z,100823.41
2023-02-24T15:22:25.421Z,100811.94
2023-02-24T15:25:14.985Z,100815.38
2023-02-24T15:28:11.624Z,100819.75
2023-02-24T15:30:55.759Z,100801.53
2023-02-24T15:33:26.042Z,100809.31
2023-02-24T15:35:59.704Z,100802.44
2023-02-24T15:38:35.132Z,100803.41
2023-02-24T15:41:05.617Z,100807.84
2023-02-24T15:43:48.419Z,100802.59
2023-02-24T15:46:19.100Z,100805.22
2023-02-24T15:48:49.466Z,100801.00
2023-02-24T15:51:29.471Z,100806.25
2023-02-24T15:53:59.798Z,100802.81
2023-02-24T15:56:29.354Z,100794.25
2023-02-24T15:58:56.960Z,100791.78
2023-02-24T16:01:26.219Z,100798.00
2023-02-24T16:03:53.824Z,100785.00
2023-02-24T16:06:23.979Z,100779.88
2023-02-24T16:08:54.151Z,100791.19
2023-02-24T16:11:26.911Z,100778.97
2023-02-24T16:13:58.692Z,100779.88
2023-02-24T16:16:27.505Z,100777.34
2023-02-24T16:18:57.140Z,100780.03
2023-02-24T16:21:25.047Z,100777.47
2023-02-24T16:23:52.822Z,100782.56
2023-02-24T16:26:23.485Z,100775.81
2023-02-24T16:28:56.607Z,100761.06
2023-02-24T16:31:25.805Z,100774.91
2023-02-24T16:33:55.798Z,100768.66
2023-02-24T16:36:25.446Z,100759.34
2023-02-24T16:38:53.665Z,100755.03
2023-02-24T16:41:22.120Z,100762.91
2023-02-24T16:43:51.054Z,100752.50
2023-02-24T16:46:23.625Z,100745.53
2023-02-24T16:48:53.593Z,100725.59
2023-02-24T16:51:26.345Z,100728.25
2023-02-24T16:53:56.249Z,100711.75
2023-02-24T16:56:24.173Z,100723.13
2023-02-24T16:58:51.806Z,100702.34
2023-02-24T17:01:21.496Z,100708.34
2023-02-24T17:03:52.126Z,100709.09
2023-02-24T17:06:22.255Z,100704.00
2023-02-24T17:08:50.674Z,100699.59
2023-02-24T17:11:20.857Z,100690.19
2023-02-24T17:13:48.509Z,100683.25
2023-02-24T17:16:21.773Z,100695.31
2023-02-24T17:18:49.934Z,100690.06
2023-02-24T17:21:18.187Z,100689.28
2023-02-24T17:23:45.973Z,100681.53
2023-02-24T17:26:15.489Z,100672.91
2023-02-24T17:28:43.883Z,100672.84
2023-02-24T17:31:12.423Z,100667.66
2023-02-24T17:33:41.039Z,100672.09
2023-02-24T17:36:08.675Z,100659.13
2023-02-24T17:38:36.325Z,100663.34
2023-02-24T17:41:05.656Z,100662.56
2023-02-24T17:43:33.777Z,100661.78
2023-02-24T17:46:03.198Z,100667.91
2023-02-24T17:48:34.013Z,100657.41
2023-02-24T17:51:02.831Z,100643.56
2023-02-24T17:53:32.305Z,100652.34
2023-02-24T17:56:04.784Z,100652.28
2023-02-24T17:58:34.143Z,100661.81
2023-02-24T18:01:03.508Z,100654.03
2023-02-24T18:03:36.130Z,100653.22
2023-02-24T18:06:09.308Z,100652.34
2023-02-24T18:08:38.152Z,100654.94
2023-02-24T18:11:07.657Z,100649.75
2023-02-24T18:13:39.711Z,100659.28
2023-02-24T18:16:16.075Z,100657.44
2023-02-24T18:18:43.928Z,100653.19
2023-02-24T18:21:11.513Z,100644.53
2023-02-24T18:23:40.596Z,100641.16
2023-02-24T18:26:12.288Z,100645.59
2023-02-24T18:28:41.020Z,100640.31
2023-02-24T18:31:14.245Z,100641.16
2023-02-24T18:33:43.701Z,100649.03
2023-02-24T18:36:12.006Z,100648.84
2023-02-24T18:38:41.317Z,100645.59
2023-02-24T18:41:15.797Z,100645.66
2023-02-24T18:43:43.610Z,100649.06
2023-02-24T18:46:13.528Z,100644.66
2023-02-24T18:48:44.416Z,100635.97
2023-02-24T18:51:17.296Z,100637.88
2023-02-24T18:53:45.526Z,100625.88
2023-02-24T18:56:16.952Z,100639.53
2023-02-24T18:58:52.596Z,100631.84
2023-02-24T19:01:23.778Z,100642.41
2023-02-24T19:03:52.043Z,100623.34
2023-02-24T19:06:21.534Z,100628.63
2023-02-24T19:08:54.848Z,100628.63
2023-02-24T19:11:27.433Z,100613.88
2023-02-24T19:13:56.112Z,100620.75
2023-02-24T19:16:23.953Z,100626.97
2023-02-24T19:18:53.656Z,100617.41
2023-02-24T19:21:21.526Z,100602.78
2023-02-24T19:23:50.397Z,100612.25
2023-02-24T19:26:22.387Z,100617.47
2023-02-24T19:28:51.019Z,100604.63
2023-02-24T19:31:24.497Z,100595.88
2023-02-24T19:33:54.125Z,100595.88
2023-02-24T19:36:23.704Z,100596.75
2023-02-24T19:38:52.493Z,100590.69
2023-02-24T19:41:20.421Z,100578.53
2023-02-24T19:43:48.150Z,100579.47
2023-02-24T19:46:17.278Z,100591.63
2023-02-24T19:48:46.085Z,100572.50
2023-02-24T19:51:23.079Z,100568.97
2023-02-24T19:53:56.260Z,100572.41
2023-02-24T19:56:28.761Z,100568.13
2023-02-24T19:58:59.368Z,100567.34
2023-02-24T20:01:32.007Z,100552.69
2023-02-24T20:04:02.677Z,100563.16
2023-02-24T20:06:35.708Z,100565.72
2023-02-24T20:09:08.694Z,100556.16
2023-02-24T20:11:39.202Z,100559.59
2023-02-24T20:14:11.241Z,100551.81
2023-02-24T20:16:41.824Z,100551.81
2023-02-24T20:19:13.739Z,100550.13
2023-02-24T20:21:42.452Z,100537.41
2023-02-24T20:24:14.705Z,100544.25
2023-02-24T20:26:47.094Z,100549.41
2023-02-24T20:29:17.366Z,100544.19
2023-02-24T20:31:47.386Z,100547.53
2023-02-24T20:34:16.825Z,100546.66
2023-02-24T20:36:45.810Z,100547.63
2023-02-24T20:39:13.962Z,100542.44
2023-02-24T20:41:41.977Z,100547.63
2023-02-24T20:44:11.530Z,100546.56
2023-02-24T20:46:39.208Z,100543.22
2023-02-24T20:49:10.794Z,100540.59
2023-02-24T20:51:38.735Z,100532.69
2023-02-24T20:54:08.613Z,100530.19
2023-02-24T20:56:39.158Z,100524.97
2023-02-24T20:59:11.438Z,100526.81
2023-02-24T21:01:39.958Z,100531.97
2023-02-24T21:04:08.923Z,100521.66
2023-02-24T21:06:37.131Z,100521.59
2023-02-24T21:09:05.646Z,100520.75
2023-02-24T21:11:34.574Z,100519.88
2023-02-24T21:14:02.807Z,100523.38
2023-02-24T21:16:30.927Z,100524.97
2023-02-24T21:18:58.971Z,100516.28
2023-02-24T21:21:27.292Z,100511.16
2023-02-24T21:23:57.516Z,100502.53
2023-02-24T21:26:27.087Z,100506.72
2023-02-24T21:28:57.947Z,100503.34
2023-02-24T21:31:26.600Z,100495.56
2023-02-24T21:33:55.230Z,100496.41
2023-02-24T21:36:26.703Z,100481.69
2023-02-24T21:38:55.486Z,100489.47
2023-02-24T21:41:23.946Z,100482.50
2023-02-24T21:43:55.039Z,100482.44
2023-02-24T21:46:28.606Z,100475.56
2023-02-24T21:48:58.178Z,100472.06
2023-02-24T21:51:27.583Z,100472.84
2023-02-24T21:53:56.899Z,100471.94
2023-02-24T21:56:28.247Z,100467.56
2023-02-24T21:59:01.201Z,100468.53
2023-02-24T22:01:32.918Z,100469.41
2023-02-24T22:04:03.180Z,100463.31
2023-02-24T22:06:33.310Z,100466.75
2023-02-24T22:09:03.255Z,100460.56
2023-02-24T22:11:35.340Z,100466.53
2023-02-24T22:14:07.510Z,100466.53
2023-02-24T22:16:35.648Z,100466.53
2023-02-24T22:19:03.959Z,100467.28
2023-02-24T22:21:32.859Z,100471.63
2023-02-24T22:24:02.909Z,100462.00
2023-02-24T22:26:32.242Z,100464.72
2023-02-24T22:29:00.877Z,100460.34
2023-02-24T22:31:32.798Z,100455.06
2023-02-24T22:34:01.424Z,100452.47
2023-02-24T22:36:31.878Z,100456.78
2023-02-24T22:39:01.151Z,100443.78
2023-02-24T22:41:31.635Z,100436.00
2023-02-24T22:44:00.360Z,100434.25
2023-02-24T22:46:31.167Z,100437.56
2023-02-24T22:49:00.499Z,100434.13
2023-02-24T22:51:28.554Z,100435.06
2023-02-24T22:53:56.744Z,100426.28
2023-02-24T22:56:26.956Z,100420.31
2023-02-24T22:58:54.952Z,100419.44
2023-02-24T23:01:28.144Z,100414.94
2023-02-24T23:03:58.535Z,100407.25
2023-02-24T23:06:26.551Z,100410.50
2023-02-24T23:08:54.731Z,100406.81
2023-02-24T23:11:29.869Z,100396.34
2023-02-24T23:14:00.494Z,100393.00
2023-02-24T23:16:31.855Z,100386.13
2023-02-24T23:19:04.333Z,100388.84
2023-02-24T23:21:34.214Z,100374.97
2023-02-24T23:24:04.207Z,100376.38
2023-02-24T23:26:40.711Z,100371.03
2023-02-24T23:29:10.402Z,100373.78
2023-02-24T23:31:38.934Z,100357.16
2023-02-24T23:34:09.898Z,100366.63
2023-02-24T23:36:40.935Z,100367.34
2023-02-24T23:39:14.434Z,100362.19
2023-02-24T23:41:42.427Z,100367.28
2023-02-24T23:44:10.326Z,100365.56
2023-02-24T23:46:37.967Z,100358.72
2023-02-24T23:49:11.588Z,100364.16
2023-02-24T23:51:48.035Z,100373.03
2023-02-24T23:54:18.267Z,100363.59
2023-02-24T23:56:46.651Z,100362.63
2023-02-24T23:59:21.321Z,100346.19
